Bhera Weather



Bhera's Current Weather

Temprature 13.54o clear sky

clear sky

Rain: 0 %

Min Temprature13.54o
Max Temprature13.54o
Humidity37
Wind Speed5.1 m/h
Sun Rise07:07:41
Sun Set17:32:21
Current Time: 23-Jan-2021 18:03:41
Lat/Lon: 32.4832, 72.9097




Bhera's Geo Location



Bhera's Weather Forecast

Time Overall Temp Min Temp Max Temp Humidity Wind Speed Rain
23-Jan-2021 (Sat)
20:00:00 clear sky 14.030 12.010 14.030 35 4.4 m/h 0 %
23:00:00 clear sky 12.820 11.960 12.820 40 4.19 m/h 0 %
24-Jan-2021 (Sun)
02:00:00 clear sky 12.260 12.010 12.260 30 5.3 m/h 0 %
05:00:00 clear sky 10.140 10.090 10.140 38 4.16 m/h 0 %
08:00:00 clear sky 9.980 9.980 9.980 46 2.45 m/h 0 %
11:00:00 clear sky 18.130 18.130 18.130 31 3.8 m/h 0 %
14:00:00 clear sky 20.630 20.630 20.630 29 4.21 m/h 0 %
17:00:00 clear sky 17.000 17.000 17.000 32 3.38 m/h 0 %
20:00:00 clear sky 12.430 12.430 12.430 37 3.51 m/h 0 %
23:00:00 clear sky 11.840 11.840 11.840 35 3.22 m/h 0 %
25-Jan-2021 (Mon)
02:00:00 clear sky 11.330 11.330 11.330 35 3.15 m/h 0 %
05:00:00 clear sky 9.320 9.320 9.320 41 2.11 m/h 0 %
08:00:00 clear sky 10.080 10.080 10.080 44 1.6 m/h 0 %
11:00:00 clear sky 18.720 18.720 18.720 26 1.75 m/h 0 %
14:00:00 clear sky 21.730 21.730 21.730 23 1.28 m/h 0 %
17:00:00 clear sky 18.300 18.300 18.300 31 2.02 m/h 0 %
20:00:00 clear sky 14.010 14.010 14.010 34 2.75 m/h 0 %
23:00:00 clear sky 12.970 12.970 12.970 35 2.21 m/h 0 %
26-Jan-2021 (Tue)
02:00:00 clear sky 11.560 11.560 11.560 37 1.5 m/h 0 %
05:00:00 clear sky 10.330 10.330 10.330 39 1.67 m/h 0 %
08:00:00 clear sky 10.620 10.620 10.620 42 1.63 m/h 0 %
11:00:00 clear sky 18.780 18.780 18.780 25 1.45 m/h 0 %
14:00:00 clear sky 21.340 21.340 21.340 22 3.29 m/h 0 %
17:00:00 clear sky 17.640 17.640 17.640 28 2.84 m/h 0 %
20:00:00 clear sky 13.010 13.010 13.010 35 2.8 m/h 0 %
23:00:00 clear sky 11.560 11.560 11.560 37 1.76 m/h 0 %
27-Jan-2021 (Wed)
02:00:00 clear sky 10.600 10.600 10.600 40 1.7 m/h 0 %
05:00:00 clear sky 9.810 9.810 9.810 42 1.45 m/h 0 %
08:00:00 clear sky 10.560 10.560 10.560 42 1.34 m/h 0 %
11:00:00 clear sky 19.100 19.100 19.100 24 2.57 m/h 0 %
14:00:00 few clouds 21.110 21.110 21.110 21 4.32 m/h 0 %
17:00:00 few clouds 17.100 17.100 17.100 29 2.44 m/h 0 %
20:00:00 clear sky 11.820 11.820 11.820 38 2.34 m/h 0 %
23:00:00 clear sky 10.610 10.610 10.610 40 1.3 m/h 0 %
28-Jan-2021 (Thu)
02:00:00 clear sky 9.550 9.550 9.550 43 1.08 m/h 0 %
05:00:00 clear sky 8.850 8.850 8.850 45 0.87 m/h 0 %
08:00:00 clear sky 9.650 9.650 9.650 44 0.99 m/h 0 %
11:00:00 clear sky 19.200 19.200 19.200 23 2.56 m/h 0 %
14:00:00 clear sky 21.630 21.630 21.630 20 4.3 m/h 0 %
17:00:00 clear sky 17.270 17.270 17.270 28 2.73 m/h 0 %


Bhera's Tourist Spots

Historical Places in Bhera

Famous Cities (60)